Time;durP1;ratioP1;P1;durP2;ratioP2;P2;SDS_P1;SDS_P2;PMS_P1;PMS_P2;Temp;Humidity;BMP_temperature;BMP_pressure;BME280_temperature;BME280_humidity;BME280_pressure;Samples;Min_cycle;Max_cycle;Signal;HPM_P1;HPM_P2
2021/08/13 00:02:00;;;;;;;10.13;8.75;;;17.20;99.90;;;;;;4987116;28;20041;-80
2021/08/13 00:04:26;;;;;;;10.60;9.35;;;17.20;99.90;;;;;;4987365;28;20057;-81
2021/08/13 00:06:52;;;;;;;10.77;9.20;;;17.20;99.90;;;;;;4987214;28;20054;-80
2021/08/13 00:09:18;;;;;;;10.73;8.23;;;17.10;99.90;;;;;;4987095;28;20057;-80
2021/08/13 00:11:43;;;;;;;11.02;9.93;;;17.10;99.90;;;;;;5003375;28;20038;-80
2021/08/13 00:14:09;;;;;;;9.27;8.18;;;17.10;99.90;;;;;;5003414;28;20039;-80
2021/08/13 00:16:35;;;;;;;11.35;10.15;;;17.10;99.90;;;;;;4986668;28;20019;-80
2021/08/13 00:19:01;;;;;;;11.30;8.82;;;16.80;99.90;;;;;;4986929;28;20046;-80
2021/08/13 00:21:28;;;;;;;10.48;8.43;;;16.80;99.90;;;;;;4986907;28;20030;-81
2021/08/13 00:23:54;;;;;;;8.73;7.68;;;16.90;99.90;;;;;;4986912;28;20043;-80
2021/08/13 00:26:20;;;;;;;11.20;8.93;;;17.00;99.90;;;;;;4986970;28;20035;-80
2021/08/13 00:28:45;;;;;;;10.48;8.30;;;16.80;99.90;;;;;;4986558;28;20033;-80
2021/08/13 00:31:12;;;;;;;9.32;8.13;;;16.80;99.90;;;;;;5003045;28;20041;-80
2021/08/13 00:33:38;;;;;;;9.43;8.48;;;16.80;99.90;;;;;;5002742;28;20030;-81
2021/08/13 00:36:04;;;;;;;11.65;9.85;;;16.90;99.90;;;;;;5003946;28;20057;-81
2021/08/13 00:38:32;;;;;;;7.72;6.95;;;16.70;99.90;;;;;;5003384;28;20022;-81
2021/08/13 00:40:57;;;;;;;9.77;7.75;;;16.80;99.90;;;;;;5003264;28;20045;-81
2021/08/13 00:43:26;;;;;;;8.38;7.43;;;16.80;99.90;;;;;;4986892;28;20475;-81
2021/08/13 00:46:12;;;;;;;13.50;10.73;;;17.00;99.90;;;;;;5002512;28;20054;-80
2021/08/13 00:48:51;;;;;;;9.77;8.88;;;16.70;99.90;;;;;;4933051;29;20134;-81
2021/08/13 00:51:38;;;;;;;9.80;8.68;;;16.80;99.90;;;;;;4930674;29;20032;-80
2021/08/13 00:54:08;;;;;;;;;;;16.70;99.90;;;;;;4931527;29;20035;-81
2021/08/13 00:56:37;;;;;;;8.48;7.05;;;16.70;99.90;;;;;;4930680;29;19917;-81
2021/08/13 00:59:22;;;;;;;8.25;7.28;;;16.80;99.90;;;;;;4933039;29;20087;-81
2021/08/13 01:01:54;;;;;;;9.90;7.85;;;16.80;99.90;;;;;;4930599;29;20032;-81
2021/08/13 01:04:21;;;;;;;9.27;8.38;;;16.80;99.90;;;;;;4930262;29;20071;-80
2021/08/13 01:06:47;;;;;;;10.60;8.68;;;16.80;99.90;;;;;;4946250;29;20607;-81
2021/08/13 01:09:13;;;;;;;12.15;9.57;;;16.80;99.90;;;;;;4930369;29;20036;-81
2021/08/13 01:12:00;;;;;;;10.18;8.43;;;16.80;99.90;;;;;;4930472;29;20573;-81
2021/08/13 01:14:49;;;;;;;10.20;8.00;;;16.80;99.90;;;;;;4930400;29;20120;-81
2021/08/13 01:17:20;;;;;;;8.63;7.72;;;16.80;99.90;;;;;;4929874;29;20035;-81
2021/08/13 01:20:28;;;;;;;8.05;7.10;;;16.70;99.90;;;;;;4946012;29;20059;-81
2021/08/13 01:23:19;;;;;;;8.57;7.20;;;16.70;99.90;;;;;;4940814;29;20044;-80
2021/08/13 01:25:55;;;;;;;8.63;7.60;;;16.80;99.90;;;;;;4952491;28;20407;-81
2021/08/13 01:28:55;;;;;;;13.32;8.30;;;16.80;99.90;;;;;;4972586;28;20093;-81
2021/08/13 01:31:24;;;;;;;9.32;7.90;;;16.80;99.90;;;;;;4989057;28;20120;-81
2021/08/13 01:34:07;;;;;;;10.30;7.90;;;16.90;99.90;;;;;;4988757;28;20030;-81
2021/08/13 01:36:35;;;;;;;10.57;7.85;;;16.90;99.90;;;;;;5005268;28;20026;-81
2021/08/13 01:39:05;;;;;;;9.80;7.83;;;16.90;99.90;;;;;;5006032;28;20034;-80
2021/08/13 01:41:36;;;;;;;9.18;8.20;;;16.90;99.90;;;;;;4988911;28;20034;-81
2021/08/13 01:44:07;;;;;;;9.88;8.40;;;16.80;99.90;;;;;;5005029;28;20373;-81
2021/08/13 01:46:34;;;;;;;8.95;7.70;;;16.70;99.90;;;;;;5004808;28;20114;-81
2021/08/13 01:49:01;;;;;;;8.68;7.78;;;16.70;99.90;;;;;;5004393;28;20082;-80
2021/08/13 01:51:31;;;;;;;10.48;8.07;;;16.70;99.90;;;;;;4989309;28;20019;-81
2021/08/13 01:53:59;;;;;;;11.10;9.02;;;16.70;99.90;;;;;;5005022;28;20581;-82
2021/08/13 01:56:28;;;;;;;9.73;8.15;;;16.70;99.90;;;;;;5004906;28;20050;-81
2021/08/13 01:58:55;;;;;;;8.57;7.72;;;16.60;99.90;;;;;;5021108;28;20121;-80
2021/08/13 02:01:22;;;;;;;10.68;9.23;;;16.60;99.90;;;;;;5021303;28;20038;-81
2021/08/13 02:03:49;;;;;;;10.35;8.70;;;16.60;99.90;;;;;;5004555;28;20034;-80
2021/08/13 02:06:16;;;;;;;10.35;8.20;;;16.60;99.90;;;;;;5004965;28;20098;-81
2021/08/13 02:08:43;;;;;;;9.73;7.70;;;16.50;99.90;;;;;;5004601;28;20038;-81
2021/08/13 02:11:17;;;;;;;11.02;8.90;;;16.50;99.90;;;;;;5021149;28;20042;-81
2021/08/13 02:13:43;;;;;;;12.07;9.27;;;16.50;99.90;;;;;;5004687;28;20038;-81
2021/08/13 02:16:13;;;;;;;9.30;8.00;;;16.50;99.90;;;;;;5001252;28;20023;-81
2021/08/13 02:18:49;;;;;;;8.57;7.70;;;16.50;99.90;;;;;;4969249;28;20034;-81
2021/08/13 02:21:18;;;;;;;7.53;6.72;;;16.50;99.90;;;;;;4969314;28;20031;-81
2021/08/13 02:23:43;;;;;;;8.65;7.72;;;16.60;99.90;;;;;;4969625;28;20140;-82
2021/08/13 02:26:09;;;;;;;8.00;7.13;;;16.70;99.90;;;;;;4985748;28;20031;-82
2021/08/13 02:28:36;;;;;;;8.95;7.32;;;16.70;99.90;;;;;;4974391;28;20031;-82
2021/08/13 02:31:02;;;;;;;9.48;7.03;;;16.70;99.90;;;;;;5004447;28;20044;-82
2021/08/13 02:33:30;;;;;;;7.55;6.55;;;16.60;99.90;;;;;;5005182;28;20117;-82
2021/08/13 02:36:07;;;;;;;9.77;8.18;;;16.60;99.90;;;;;;5004650;28;20550;-82
2021/08/13 02:38:39;;;;;;;10.38;6.85;;;16.60;99.90;;;;;;5004406;28;20038;-81
2021/08/13 02:41:07;;;;;;;9.98;7.70;;;16.50;99.90;;;;;;5004572;28;20030;-82
2021/08/13 02:43:37;;;;;;;10.30;7.13;;;16.40;99.90;;;;;;5004471;28;20066;-82
2021/08/13 02:46:27;;;;;;;9.25;6.80;;;16.40;99.90;;;;;;5004622;28;20080;-81
2021/08/13 02:48:55;;;;;;;8.73;6.78;;;16.40;99.90;;;;;;4963910;29;20071;-81
2021/08/13 02:51:27;;;;;;;9.98;7.05;;;16.40;99.90;;;;;;4964072;29;20467;-82
2021/08/13 02:53:54;;;;;;;9.50;7.63;;;16.40;99.90;;;;;;4948401;29;20047;-82
2021/08/13 02:56:24;;;;;;;9.25;6.85;;;16.40;99.90;;;;;;4964269;29;20066;-82
2021/08/13 02:58:55;;;;;;;7.85;6.95;;;16.30;99.90;;;;;;4964244;29;20038;-82
2021/08/13 03:01:30;;;;;;;9.23;7.57;;;16.30;99.90;;;;;;4964366;29;20159;-81
2021/08/13 03:03:58;;;;;;;8.10;7.30;;;16.40;99.90;;;;;;4967022;29;20075;-82
2021/08/13 03:06:31;;;;;;;7.43;6.25;;;16.40;99.90;;;;;;4967462;29;20106;-82
2021/08/13 03:09:00;;;;;;;7.78;6.72;;;16.40;99.90;;;;;;4967565;29;20032;-81
2021/08/13 03:11:26;;;;;;;11.23;7.90;;;16.40;99.90;;;;;;4967674;29;20086;-82
2021/08/13 03:13:53;;;;;;;9.27;7.88;;;16.40;99.90;;;;;;4967595;29;20122;-82
2021/08/13 03:16:19;;;;;;;9.13;7.50;;;16.40;99.90;;;;;;4967244;29;20039;-81
2021/08/13 03:18:49;;;;;;;9.88;7.15;;;16.40;99.90;;;;;;4967539;29;20035;-82
2021/08/13 03:21:16;;;;;;;9.00;7.05;;;16.40;99.90;;;;;;4935431;29;20035;-82
2021/08/13 03:23:43;;;;;;;8.73;7.35;;;16.40;99.90;;;;;;4935459;29;20127;-82
2021/08/13 03:26:09;;;;;;;11.05;8.98;;;16.30;99.90;;;;;;4984056;28;20475;-82
2021/08/13 03:28:36;;;;;;;9.25;8.25;;;16.40;99.90;;;;;;5007074;28;20041;-81
2021/08/13 03:31:03;;;;;;;10.02;8.88;;;16.20;99.90;;;;;;5007226;28;20030;-82
2021/08/13 03:33:31;;;;;;;10.60;8.52;;;16.30;99.90;;;;;;5007480;28;20121;-82
2021/08/13 03:35:59;;;;;;;10.23;8.57;;;16.20;99.90;;;;;;5023500;28;20027;-82
2021/08/13 03:38:26;;;;;;;10.35;8.02;;;16.10;99.90;;;;;;5007064;28;20027;-81
2021/08/13 03:40:52;;;;;;;11.23;8.48;;;16.10;99.90;;;;;;5006969;28;20399;-82
2021/08/13 03:43:18;;;;;;;11.00;8.68;;;16.10;99.90;;;;;;5007056;28;20022;-81
2021/08/13 03:45:44;;;;;;;11.63;8.38;;;16.10;99.90;;;;;;5006811;28;20038;-82
2021/08/13 03:48:09;;;;;;;12.32;9.43;;;16.00;99.90;;;;;;5025184;23;20069;-81
2021/08/13 03:50:35;;;;;;;10.30;8.40;;;16.10;99.90;;;;;;5023626;28;20397;-81
2021/08/13 03:53:05;;;;;;;10.40;9.15;;;16.00;99.90;;;;;;5007336;28;20097;-81
2021/08/13 03:55:30;;;;;;;10.05;9.05;;;16.00;99.90;;;;;;4990849;28;20061;-81
2021/08/13 03:57:56;;;;;;;10.02;8.77;;;15.90;99.90;;;;;;5007079;28;20026;-82
2021/08/13 04:00:22;;;;;;;8.73;7.82;;;15.90;99.90;;;;;;5007085;28;20034;-81
2021/08/13 04:02:50;;;;;;;12.00;8.95;;;15.90;99.90;;;;;;5007560;28;20018;-82
2021/08/13 04:05:23;;;;;;;8.88;7.30;;;16.00;99.90;;;;;;5007949;28;20042;-81
2021/08/13 04:07:51;;;;;;;13.60;8.55;;;16.00;99.90;;;;;;5006921;28;20026;-80
2021/08/13 04:10:16;;;;;;;9.23;7.63;;;16.10;99.90;;;;;;5006956;28;20041;-82
2021/08/13 04:12:42;;;;;;;9.18;7.85;;;16.20;99.90;;;;;;4990840;28;20022;-81
2021/08/13 04:15:20;;;;;;;11.00;8.88;;;16.20;99.90;;;;;;5007237;28;20026;-81
2021/08/13 04:17:48;;;;;;;12.50;8.55;;;16.10;99.90;;;;;;4990484;28;20030;-81
2021/08/13 04:20:15;;;;;;;11.18;8.35;;;16.10;99.90;;;;;;5022809;28;20049;-81
2021/08/13 04:22:45;;;;;;;10.52;9.07;;;16.10;99.90;;;;;;5022563;28;20029;-81
2021/08/13 04:25:12;;;;;;;10.98;8.73;;;16.10;99.90;;;;;;5022593;28;20038;-81
2021/08/13 04:27:37;;;;;;;9.70;8.27;;;16.10;99.90;;;;;;5007348;28;20026;-81
2021/08/13 04:30:04;;;;;;;9.95;8.82;;;16.20;99.90;;;;;;5039880;28;20532;-81
2021/08/13 04:32:30;;;;;;;9.38;8.40;;;16.20;99.90;;;;;;5025957;28;20022;-81
2021/08/13 04:34:56;;;;;;;9.95;8.52;;;16.20;99.90;;;;;;5025819;28;20025;-82
2021/08/13 04:37:23;;;;;;;8.57;7.70;;;16.20;99.90;;;;;;5041437;28;20038;-81
2021/08/13 04:39:49;;;;;;;11.15;9.00;;;16.20;99.90;;;;;;5025321;28;20029;-82
2021/08/13 04:42:15;;;;;;;10.75;8.40;;;16.30;99.90;;;;;;5024933;28;20037;-82
2021/08/13 04:44:40;;;;;;;10.55;8.23;;;16.40;99.90;;;;;;5041394;28;20042;-81
2021/08/13 04:47:07;;;;;;;10.80;9.05;;;16.40;99.90;;;;;;5040835;28;20034;-82
2021/08/13 04:49:35;;;;;;;9.77;8.77;;;16.50;99.90;;;;;;5024928;28;20029;-82
2021/08/13 04:52:02;;;;;;;10.07;8.65;;;16.50;99.90;;;;;;5024715;28;20033;-82
2021/08/13 04:54:27;;;;;;;9.38;8.25;;;16.60;99.90;;;;;;5041031;28;20040;-82
2021/08/13 04:56:53;;;;;;;9.70;8.52;;;16.60;99.90;;;;;;5040892;28;20029;-82
2021/08/13 04:59:18;;;;;;;11.75;9.10;;;16.60;99.90;;;;;;5024699;28;20035;-82
2021/08/13 05:01:49;;;;;;;9.85;8.23;;;16.70;99.90;;;;;;5041000;28;20030;-82
2021/08/13 05:04:15;;;;;;;10.77;8.63;;;16.70;99.90;;;;;;5024523;28;20068;-82
2021/08/13 05:06:40;;;;;;;9.73;8.40;;;16.80;99.90;;;;;;5024292;28;20046;-82
2021/08/13 05:09:06;;;;;;;9.68;8.70;;;16.90;99.90;;;;;;5024156;28;20034;-83
2021/08/13 05:11:33;;;;;;;10.38;8.75;;;16.90;99.90;;;;;;5040885;28;20041;-82
2021/08/13 05:13:58;;;;;;;9.60;8.60;;;17.00;99.90;;;;;;5008127;28;20030;-82
2021/08/13 05:16:25;;;;;;;9.75;8.50;;;17.10;99.90;;;;;;5018119;28;20029;-81
2021/08/13 05:18:50;;;;;;;9.48;8.15;;;17.10;99.90;;;;;;5004565;28;20026;-86
2021/08/13 05:21:16;;;;;;;9.05;7.78;;;17.20;99.90;;;;;;5004509;28;20049;-81
2021/08/13 05:23:42;;;;;;;10.02;7.57;;;17.20;99.90;;;;;;5018861;28;20045;-82
2021/08/13 05:26:08;;;;;;;10.02;8.50;;;17.30;99.90;;;;;;5023785;28;20030;-82
2021/08/13 05:28:34;;;;;;;12.60;8.52;;;17.30;99.90;;;;;;5023641;28;20156;-81
2021/08/13 05:31:00;;;;;;;10.52;9.43;;;17.40;99.90;;;;;;5024086;28;20064;-81
2021/08/13 05:33:25;;;;;;;14.07;10.32;;;17.40;99.90;;;;;;5025265;28;20409;-81
2021/08/13 05:35:51;;;;;;;15.25;12.90;;;17.40;99.90;;;;;;5023833;28;20109;-81
2021/08/13 05:38:18;;;;;;;14.30;12.38;;;17.30;99.90;;;;;;5023377;28;20505;-80
2021/08/13 05:40:44;;;;;;;15.25;11.73;;;17.40;99.90;;;;;;5023641;28;20239;-81
2021/08/13 05:43:11;;;;;;;13.13;10.52;;;17.40;99.90;;;;;;5023855;28;20026;-80
2021/08/13 05:45:39;;;;;;;12.85;11.25;;;17.40;99.90;;;;;;5023422;28;20034;-80
2021/08/13 05:48:05;;;;;;;11.70;9.68;;;17.50;99.90;;;;;;5041598;22;20053;-80
2021/08/13 05:50:32;;;;;;;14.75;11.15;;;17.60;99.90;;;;;;5007796;28;20033;-79
2021/08/13 05:52:57;;;;;;;14.57;11.93;;;17.60;99.90;;;;;;5023592;28;20018;-80
2021/08/13 05:55:27;;;;;;;15.77;12.60;;;17.70;99.90;;;;;;5008188;28;20089;-79
2021/08/13 05:57:52;;;;;;;16.60;12.55;;;17.80;99.90;;;;;;5023769;28;20289;-80
2021/08/13 06:00:18;;;;;;;13.80;10.10;;;17.80;99.90;;;;;;5023776;28;20033;-79
2021/08/13 06:02:53;;;;;;;16.17;13.52;;;17.90;99.90;;;;;;5024179;28;20386;-80
2021/08/13 06:05:20;;;;;;;21.65;16.83;;;18.00;99.90;;;;;;5007919;28;20058;-80
2021/08/13 06:07:46;;;;;;;21.45;16.52;;;18.00;99.90;;;;;;5023778;28;20029;-80
2021/08/13 06:10:12;;;;;;;20.17;15.55;;;18.00;99.90;;;;;;5023911;28;20037;-80
2021/08/13 06:12:38;;;;;;;21.75;16.55;;;18.20;99.90;;;;;;5024000;28;20041;-80
2021/08/13 06:15:05;;;;;;;18.63;14.30;;;18.20;99.90;;;;;;5007505;28;20030;-79
2021/08/13 06:17:33;;;;;;;15.32;11.88;;;18.30;99.90;;;;;;5023502;28;20038;-80
2021/08/13 06:19:59;;;;;;;18.00;11.98;;;18.40;99.90;;;;;;5023676;28;20030;-80
2021/08/13 06:22:25;;;;;;;13.98;11.98;;;18.50;99.90;;;;;;5007313;28;20031;-81
2021/08/13 06:24:51;;;;;;;14.25;10.75;;;18.50;99.90;;;;;;5023422;28;20038;-80
2021/08/13 06:27:16;;;;;;;19.33;13.30;;;18.60;99.90;;;;;;5023450;28;20037;-80
2021/08/13 06:29:42;;;;;;;13.35;10.43;;;18.60;99.90;;;;;;5007061;28;20449;-80
2021/08/13 06:32:07;;;;;;;15.88;11.77;;;18.70;99.90;;;;;;5023586;28;20088;-81
2021/08/13 06:34:33;;;;;;;13.15;10.95;;;18.70;99.90;;;;;;5023452;28;20494;-80
2021/08/13 06:36:59;;;;;;;13.52;10.70;;;18.80;99.90;;;;;;5007178;28;20129;-80
2021/08/13 06:39:24;;;;;;;19.85;11.85;;;18.60;99.90;;;;;;5027166;28;20038;-81
2021/08/13 06:41:50;;;;;;;12.23;9.57;;;18.70;99.90;;;;;;5027231;28;20026;-80
2021/08/13 06:44:35;;;;;;;20.13;11.90;;;18.80;99.90;;;;;;5027145;28;20042;-82
2021/08/13 06:47:02;;;;;;;12.65;9.20;;;18.70;99.90;;;;;;5010326;28;20058;-81
2021/08/13 06:49:27;;;;;;;14.43;9.63;;;18.80;99.90;;;;;;5026602;28;20030;-80
2021/08/13 06:51:53;;;;;;;13.48;9.38;;;18.80;99.90;;;;;;5010785;28;20029;-80
2021/08/13 06:54:20;;;;;;;11.20;8.82;;;18.80;99.90;;;;;;5010831;28;20037;-80
2021/08/13 06:56:46;;;;;;;9.98;7.35;;;18.90;99.90;;;;;;5043409;28;20030;-81
2021/08/13 06:59:12;;;;;;;13.27;9.88;;;19.00;99.90;;;;;;5024695;28;20105;-79
2021/08/13 07:01:37;;;;;;;12.65;8.63;;;19.00;99.90;;;;;;5010412;28;20120;-81
2021/08/13 07:04:03;;;;;;;12.07;7.80;;;19.10;99.90;;;;;;5026734;28;20030;-80
2021/08/13 07:06:29;;;;;;;10.60;7.47;;;19.30;99.90;;;;;;5026662;28;20033;-80
2021/08/13 07:08:55;;;;;;;12.45;9.68;;;19.40;99.90;;;;;;5026676;28;20030;-81
2021/08/13 07:11:24;;;;;;;13.67;9.93;;;19.20;99.90;;;;;;5026839;28;20029;-81
2021/08/13 07:13:49;;;;;;;10.27;7.18;;;19.30;99.90;;;;;;5010409;28;20261;-82
2021/08/13 07:16:16;;;;;;;15.60;10.63;;;19.30;99.90;;;;;;5026602;28;20022;-82
2021/08/13 07:18:41;;;;;;;15.73;10.40;;;19.30;99.90;;;;;;5027874;28;20092;-81
2021/08/13 07:21:07;;;;;;;14.13;10.57;;;19.30;99.90;;;;;;5026707;28;20527;-82
2021/08/13 07:23:33;;;;;;;15.18;11.15;;;19.30;99.90;;;;;;5026523;28;20093;-83
2021/08/13 07:25:59;;;;;;;13.18;9.65;;;19.50;99.90;;;;;;5010119;28;20049;-82
2021/08/13 07:28:25;;;;;;;13.88;9.90;;;19.70;99.90;;;;;;5025214;28;20124;-82
2021/08/13 07:30:51;;;;;;;11.07;8.70;;;20.00;99.90;;;;;;5024536;28;20064;-81
2021/08/13 07:33:19;;;;;;;18.05;11.80;;;19.80;99.90;;;;;;5025968;28;20022;-81
2021/08/13 07:35:45;;;;;;;15.35;10.27;;;19.40;99.90;;;;;;5009890;28;20112;-81
2021/08/13 07:38:10;;;;;;;15.07;9.43;;;19.40;99.90;;;;;;5009749;28;20037;-82
2021/08/13 07:40:37;;;;;;;11.77;9.27;;;19.30;99.90;;;;;;5009884;28;20544;-81
2021/08/13 07:43:03;;;;;;;15.85;10.20;;;19.40;99.90;;;;;;5010614;28;20026;-82
2021/08/13 07:45:30;;;;;;;13.73;10.55;;;19.40;99.90;;;;;;5011819;28;20042;-82
2021/08/13 07:47:56;;;;;;;16.63;10.20;;;19.60;99.90;;;;;;4971588;23;20510;-86
2021/08/13 07:50:22;;;;;;;17.25;11.07;;;19.70;99.90;;;;;;4996581;28;20093;-80
2021/08/13 07:52:48;;;;;;;13.35;9.05;;;19.60;99.90;;;;;;5020018;28;20060;-80
2021/08/13 07:55:17;;;;;;;13.88;9.60;;;19.90;99.90;;;;;;4990675;28;20066;-80
2021/08/13 07:57:43;;;;;;;13.57;9.38;;;19.90;99.90;;;;;;5006276;28;20034;-80
2021/08/13 08:00:12;;;;;;;17.42;12.00;;;19.80;99.90;;;;;;4990553;28;20098;-79
2021/08/13 08:02:55;;;;;;;17.48;11.70;;;19.80;99.90;;;;;;5007620;28;20443;-80
2021/08/13 08:05:23;;;;;;;13.52;9.68;;;20.20;99.90;;;;;;5006312;28;20082;-80
2021/08/13 08:07:52;;;;;;;16.67;10.85;;;20.50;99.90;;;;;;5007367;28;20042;-80
2021/08/13 08:10:20;;;;;;;11.80;8.43;;;20.50;99.90;;;;;;5006562;28;20038;-80
2021/08/13 08:12:48;;;;;;;13.40;10.10;;;20.90;99.90;;;;;;5006531;28;20026;-81
2021/08/13 08:15:17;;;;;;;17.23;12.25;;;20.60;99.90;;;;;;5006430;28;20062;-81
2021/08/13 08:17:45;;;;;;;13.20;9.80;;;20.20;99.90;;;;;;5006644;28;20456;-81
2021/08/13 08:20:14;;;;;;;15.90;10.90;;;20.10;99.90;;;;;;5007134;28;20043;-82
2021/08/13 08:22:44;;;;;;;17.60;11.18;;;20.00;99.90;;;;;;5006880;28;20030;-82
2021/08/13 08:25:13;;;;;;;14.35;9.55;;;20.10;99.90;;;;;;5005797;28;20041;-81
2021/08/13 08:27:42;;;;;;;15.02;10.75;;;20.20;99.90;;;;;;5006973;28;20038;-81
2021/08/13 08:30:11;;;;;;;14.80;9.55;;;20.20;99.90;;;;;;5006908;28;20030;-82
2021/08/13 08:32:39;;;;;;;17.73;10.20;;;20.60;99.90;;;;;;5007127;28;20478;-80
2021/08/13 08:35:08;;;;;;;14.45;9.75;;;20.50;99.90;;;;;;5006926;28;20038;-80
2021/08/13 08:37:59;;;;;;;15.93;9.73;;;21.10;99.90;;;;;;5006811;28;20170;-81
2021/08/13 08:40:31;;;;;;;14.32;8.95;;;21.00;99.90;;;;;;5005582;28;20093;-81
2021/08/13 08:43:02;;;;;;;14.43;8.85;;;20.90;99.90;;;;;;5005821;28;20094;-81
2021/08/13 08:45:51;;;;;;;12.02;8.23;;;20.70;99.90;;;;;;5005376;28;20043;-81
2021/08/13 08:48:20;;;;;;;9.50;6.63;;;20.50;99.90;;;;;;4984337;28;20094;-81
2021/08/13 08:50:48;;;;;;;10.73;5.50;;;20.70;99.90;;;;;;4984525;28;20090;-81
2021/08/13 08:53:21;;;;;;;10.75;6.97;;;20.80;99.90;;;;;;5000542;28;20495;-80
2021/08/13 08:55:53;;;;;;;12.23;7.10;;;20.90;99.90;;;;;;4984567;28;20038;-80
2021/08/13 08:58:23;;;;;;;11.50;7.22;;;20.90;99.90;;;;;;4984349;28;20047;-80
2021/08/13 09:00:51;;;;;;;11.30;6.88;;;20.90;99.90;;;;;;4983785;28;20031;-80
2021/08/13 09:03:20;;;;;;;11.38;7.35;;;20.80;99.90;;;;;;5000417;28;20090;-80
2021/08/13 09:05:49;;;;;;;9.43;5.10;;;21.10;99.90;;;;;;4984164;28;20046;-81
2021/08/13 09:08:18;;;;;;;10.80;5.97;;;21.40;99.90;;;;;;4984237;28;20038;-81
2021/08/13 09:10:47;;;;;;;8.10;4.70;;;21.40;99.90;;;;;;4984298;28;20050;-80
2021/08/13 09:13:22;;;;;;;6.63;4.17;;;21.70;99.90;;;;;;4984353;28;20074;-80
2021/08/13 09:15:52;;;;;;;7.75;5.25;;;21.60;99.90;;;;;;4984151;28;20027;-79
2021/08/13 09:18:23;;;;;;;8.65;5.30;;;21.30;99.90;;;;;;4968502;28;20034;-80
2021/08/13 09:20:56;;;;;;;8.85;5.63;;;21.50;99.90;;;;;;4984405;28;20039;-81
2021/08/13 09:23:31;;;;;;;8.82;4.50;;;21.30;99.90;;;;;;4969569;28;20511;-80
2021/08/13 09:26:02;;;;;;;6.07;4.07;;;21.60;99.90;;;;;;5000571;28;20082;-80
2021/08/13 09:28:58;;;;;;;9.02;4.82;;;21.90;99.90;;;;;;5004737;28;20044;-80
2021/08/13 09:31:49;;;;;;;10.27;5.90;;;21.60;99.90;;;;;;4971660;28;20030;-80
2021/08/13 09:34:17;;;;;;;8.85;4.80;;;21.70;99.90;;;;;;4985201;28;20042;-80
2021/08/13 09:36:49;;;;;;;8.02;5.30;;;21.50;99.90;;;;;;4984846;28;20483;-80
2021/08/13 09:39:15;;;;;;;7.85;4.55;;;21.60;99.90;;;;;;4985119;28;20078;-80
2021/08/13 09:41:49;;;;;;;5.30;2.83;;;21.80;99.90;;;;;;4986236;28;20031;-80
2021/08/13 09:44:32;;;;;;;7.75;3.70;;;22.40;99.90;;;;;;4984801;28;20046;-80
2021/08/13 09:47:06;;;;;;;5.68;3.08;;;22.40;99.90;;;;;;4985609;28;20031;-81
2021/08/13 09:49:34;;;;;;;6.97;2.67;;;21.80;99.90;;;;;;5001121;28;20042;-80
2021/08/13 09:52:26;;;;;;;8.80;3.45;;;21.80;99.90;;;;;;4986112;28;20031;-80
2021/08/13 09:55:14;;;;;;;6.15;3.42;;;21.80;99.90;;;;;;4981068;28;20126;-80
2021/08/13 09:57:46;;;;;;;7.35;3.05;;;22.20;99.90;;;;;;4984495;28;20031;-80
2021/08/13 10:00:15;;;;;;;6.78;2.72;;;22.30;99.90;;;;;;4984514;28;20102;-81
2021/08/13 10:02:46;;;;;;;6.80;3.60;;;22.30;99.90;;;;;;4986071;28;20034;-80
2021/08/13 10:05:16;;;;;;;5.53;3.10;;;21.90;99.90;;;;;;4985860;28;20045;-80
2021/08/13 10:07:52;;;;;;;;;;;22.00;99.90;;;;;;4984704;28;20023;-81
2021/08/13 10:10:24;;;;;;;6.18;2.78;;;22.20;99.90;;;;;;5000972;28;20248;-81
2021/08/13 10:12:50;;;;;;;5.20;2.70;;;22.00;99.90;;;;;;4986094;28;20026;-80
2021/08/13 10:15:31;;;;;;;4.40;1.77;;;22.10;99.90;;;;;;4988315;28;20035;-81
2021/08/13 10:17:59;;;;;;;5.50;3.63;;;22.40;99.90;;;;;;4990383;28;20097;-81
2021/08/13 10:20:30;;;;;;;7.32;3.88;;;21.90;99.90;;;;;;4991763;28;20038;-80
2021/08/13 10:22:56;;;;;;;7.50;4.03;;;22.00;99.90;;;;;;5007937;28;20031;-80
2021/08/13 10:25:23;;;;;;;8.20;4.20;;;21.80;99.90;;;;;;5007708;28;20038;-81
2021/08/13 10:27:49;;;;;;;7.63;4.05;;;21.50;99.90;;;;;;5007579;28;20026;-81
2021/08/13 10:30:25;;;;;;;7.40;3.47;;;21.20;99.90;;;;;;4988147;28;20062;-80
2021/08/13 10:32:56;;;;;;;8.73;4.22;;;21.80;99.90;;;;;;4988323;28;20475;-80
2021/08/13 10:35:29;;;;;;;7.13;4.75;;;21.70;99.90;;;;;;4988388;28;20042;-80
2021/08/13 10:38:02;;;;;;;8.82;5.10;;;21.70;99.90;;;;;;4989287;28;20037;-80
2021/08/13 10:40:30;;;;;;;7.13;3.88;;;21.80;99.90;;;;;;4972083;28;20067;-80
2021/08/13 10:42:58;;;;;;;10.27;4.90;;;22.10;99.90;;;;;;4988126;28;20038;-80
2021/08/13 10:45:31;;;;;;;7.07;4.07;;;21.90;99.90;;;;;;5004124;28;20050;-80
2021/08/13 10:48:30;;;;;;;8.75;3.80;;;21.80;99.90;;;;;;4987552;28;20415;-80
2021/08/13 10:51:00;;;;;;;6.63;2.50;;;22.20;99.90;;;;;;4983108;28;20122;-80
2021/08/13 10:53:27;;;;;;;6.55;2.83;;;22.40;99.90;;;;;;4987945;28;20102;-80
2021/08/13 10:55:56;;;;;;;6.53;2.03;;;22.30;99.90;;;;;;5004086;28;20035;-80
2021/08/13 10:58:36;;;;;;;5.68;2.13;;;22.30;99.90;;;;;;4988058;28;20062;-80
2021/08/13 11:01:05;;;;;;;6.32;2.50;;;22.50;99.90;;;;;;5003923;28;20030;-80
2021/08/13 11:03:33;;;;;;;7.85;2.92;;;22.40;99.90;;;;;;4987580;28;20053;-79
2021/08/13 11:06:00;;;;;;;8.10;2.42;;;22.40;99.90;;;;;;4987555;28;20039;-80
2021/08/13 11:08:39;;;;;;;5.70;2.25;;;22.60;99.90;;;;;;4987613;28;20031;-79
2021/08/13 11:11:13;;;;;;;4.80;2.10;;;22.20;99.90;;;;;;4987720;28;20027;-80
2021/08/13 11:13:49;;;;;;;9.57;2.80;;;22.20;99.90;;;;;;4987589;28;20031;-79
2021/08/13 11:16:25;;;;;;;5.13;2.00;;;22.00;99.90;;;;;;4988494;28;20038;-80
2021/08/13 11:18:56;;;;;;;7.97;3.25;;;22.70;99.90;;;;;;4971187;28;20031;-80
2021/08/13 11:21:58;;;;;;;7.72;3.28;;;22.50;99.90;;;;;;4987610;28;20090;-80
2021/08/13 11:24:51;;;;;;;6.40;3.20;;;21.70;99.90;;;;;;4966107;28;20046;-80
2021/08/13 11:27:19;;;;;;;8.73;4.07;;;21.80;99.90;;;;;;4987139;28;20073;-79
2021/08/13 11:29:46;;;;;;;11.27;4.85;;;21.90;99.90;;;;;;4994221;28;20121;-79
2021/08/13 11:32:35;;;;;;;6.10;3.38;;;22.10;99.90;;;;;;5006215;28;20038;-80
2021/08/13 11:35:10;;;;;;;5.50;3.03;;;22.40;99.90;;;;;;4990368;28;20486;-80
2021/08/13 11:37:58;;;;;;;10.68;4.45;;;22.10;99.90;;;;;;5006224;28;20058;-79
2021/08/13 11:40:29;;;;;;;6.68;3.95;;;21.90;99.90;;;;;;5006509;28;20066;-79
2021/08/13 11:42:59;;;;;;;8.85;3.67;;;21.60;99.90;;;;;;4990082;28;20034;-80
2021/08/13 11:45:45;;;;;;;5.35;2.65;;;21.70;99.90;;;;;;5006198;28;20046;-80
2021/08/13 11:48:16;;;;;;;5.82;2.15;;;22.00;99.90;;;;;;5032373;23;20042;-80
2021/08/13 11:50:42;;;;;;;6.50;2.67;;;22.20;99.90;;;;;;5026289;28;20057;-81
2021/08/13 11:53:08;;;;;;;4.05;2.15;;;21.90;99.90;;;;;;5042794;28;20034;-80
2021/08/13 11:55:35;;;;;;;6.22;1.80;;;21.80;99.90;;;;;;5025964;28;20121;-80
2021/08/13 11:58:04;;;;;;;7.78;1.83;;;21.90;99.90;;;;;;5025756;28;20034;-80
2021/08/13 12:00:35;;;;;;;3.78;1.38;;;22.10;99.90;;;;;;5026061;28;20018;-81
2021/08/13 12:03:03;;;;;;;4.35;1.20;;;22.10;99.90;;;;;;5025926;28;20037;-79
2021/08/13 12:05:31;;;;;;;5.57;1.20;;;21.80;99.90;;;;;;5025602;28;20056;-80
2021/08/13 12:08:16;;;;;;;4.82;1.30;;;21.90;99.90;;;;;;5009186;28;20038;-80
2021/08/13 12:10:48;;;;;;;3.88;0.98;;;22.00;99.90;;;;;;5025810;28;20030;-80
2021/08/13 12:13:14;;;;;;;7.20;1.40;;;22.20;99.90;;;;;;5025676;28;20397;-81
2021/08/13 12:15:42;;;;;;;5.43;1.30;;;22.30;99.90;;;;;;5025308;28;20034;-79
2021/08/13 12:18:10;;;;;;;4.20;1.13;;;22.70;99.90;;;;;;5041782;28;20037;-80
2021/08/13 12:20:38;;;;;;;3.97;1.10;;;22.70;99.90;;;;;;5025499;28;20033;-81
2021/08/13 12:23:07;;;;;;;6.55;1.13;;;22.50;99.90;;;;;;5025448;28;20374;-80
2021/08/13 12:25:35;;;;;;;6.60;1.00;;;22.30;99.90;;;;;;5025226;28;20068;-80
2021/08/13 12:28:02;;;;;;;4.50;1.00;;;22.30;99.90;;;;;;5025308;28;20492;-80
2021/08/13 12:30:28;;;;;;;4.63;1.00;;;22.20;99.90;;;;;;5024930;28;20499;-81
2021/08/13 12:32:56;;;;;;;4.18;1.05;;;22.00;99.90;;;;;;5025231;28;20030;-80
2021/08/13 12:35:22;;;;;;;4.65;0.85;;;22.20;99.90;;;;;;5024216;28;20053;-80
2021/08/13 12:37:48;;;;;;;3.50;0.68;;;22.40;99.90;;;;;;5041477;28;20036;-81
2021/08/13 12:40:16;;;;;;;4.53;1.00;;;22.20;99.90;;;;;;5025277;28;20037;-80
2021/08/13 12:42:51;;;;;;;3.67;0.70;;;22.30;99.90;;;;;;5008834;28;20021;-79
2021/08/13 12:45:18;;;;;;;3.75;0.70;;;22.30;99.90;;;;;;5024923;28;20042;-80
2021/08/13 12:47:47;;;;;;;2.40;0.70;;;22.40;99.90;;;;;;5024124;28;20045;-79
2021/08/13 12:50:21;;;;;;;3.72;0.60;;;22.40;99.90;;;;;;5024777;28;20037;-79
2021/08/13 12:53:30;;;;;;;2.97;0.63;;;22.60;99.90;;;;;;5026030;28;20029;-79
2021/08/13 12:55:56;;;;;;;3.58;0.93;;;22.60;99.90;;;;;;5012411;28;20042;-79